createdAt,value
2016-05-23T00:00:23.059Z,957.25
2016-05-23T00:01:23.078Z,957.24
2016-05-23T00:02:23.081Z,957.21
2016-05-23T00:03:23.098Z,957.22
2016-05-23T00:04:23.117Z,957.27
2016-05-23T00:05:23.120Z,957.3
2016-05-23T00:06:23.138Z,957.26
2016-05-23T00:07:23.141Z,957.25
2016-05-23T00:08:23.144Z,957.24
2016-05-23T00:09:23.162Z,957.27
2016-05-23T00:10:23.164Z,957.23
2016-05-23T00:11:23.183Z,957.22
2016-05-23T00:12:23.186Z,957.19
2016-05-23T00:13:23.204Z,957.18
2016-05-23T00:14:23.206Z,957.18
2016-05-23T00:15:23.224Z,957.17
2016-05-23T00:16:23.228Z,957.15
2016-05-23T00:17:23.246Z,957.15
2016-05-23T00:18:23.263Z,957.17
2016-05-23T00:19:23.267Z,957.14
2016-05-23T00:20:23.269Z,957.15
2016-05-23T00:21:23.288Z,957.14
2016-05-23T00:22:23.290Z,957.16
2016-05-23T00:23:23.310Z,957.16
2016-05-23T00:24:23.312Z,957.18
2016-05-23T00:25:23.329Z,957.18
2016-05-23T00:26:23.333Z,957.22
2016-05-23T00:27:23.350Z,957.25
2016-05-23T00:28:23.354Z,957.31
2016-05-23T00:29:23.372Z,957.32
2016-05-23T00:30:23.375Z,957.34
2016-05-23T00:31:23.393Z,957.36
2016-05-23T00:32:23.395Z,957.3
2016-05-23T00:33:23.398Z,957.34
2016-05-23T00:34:23.417Z,957.28
2016-05-23T00:35:23.419Z,957.25
2016-05-23T00:36:23.437Z,957.28
2016-05-23T00:37:23.456Z,957.27
2016-05-23T00:38:23.459Z,957.32
2016-05-23T00:39:23.477Z,957.26
2016-05-23T00:40:23.480Z,957.26
2016-05-23T00:41:23.482Z,957.28
2016-05-23T00:42:23.500Z,957.3
2016-05-23T00:43:23.503Z,957.3
2016-05-23T00:44:23.616Z,957.37
2016-05-23T00:45:23.540Z,957.44
2016-05-23T00:46:23.543Z,957.43
2016-05-23T00:47:23.561Z,957.43
2016-05-23T00:48:23.563Z,957.39
2016-05-23T00:49:23.566Z,957.34
2016-05-23T00:50:23.585Z,957.31
2016-05-23T00:51:23.588Z,957.25
2016-05-23T00:52:23.605Z,957.22
2016-05-23T00:53:23.607Z,957.25
2016-05-23T00:54:23.627Z,957.2
2016-05-23T00:55:23.645Z,957.18
2016-05-23T00:56:23.647Z,957.14
2016-05-23T00:57:23.651Z,957.15
2016-05-23T00:58:23.668Z,957.16
2016-05-23T00:59:23.671Z,957.15
2016-05-23T01:00:23.689Z,957.16
2016-05-23T01:01:23.693Z,957.18
2016-05-23T01:02:23.695Z,957.2
2016-05-23T01:03:23.713Z,957.16
2016-05-23T01:04:23.732Z,957.19
2016-05-23T01:05:23.734Z,957.13
2016-05-23T01:06:23.753Z,957.16
2016-05-23T01:07:23.755Z,957.17
2016-05-23T01:08:23.758Z,957.2
2016-05-23T01:09:23.776Z,957.15
2016-05-23T01:10:23.794Z,957.17
2016-05-23T01:11:23.813Z,957.2
2016-05-23T01:12:23.800Z,957.22
2016-05-23T01:13:23.819Z,957.2
2016-05-23T01:14:24.180Z,957.22
2016-05-23T01:15:23.839Z,957.23
2016-05-23T01:16:23.858Z,957.19
2016-05-23T01:17:23.844Z,957.19
2016-05-23T01:18:23.863Z,957.23
2016-05-23T01:19:23.866Z,957.26
2016-05-23T01:20:23.885Z,957.28
2016-05-23T01:21:23.902Z,957.37
2016-05-23T01:22:23.905Z,957.29
2016-05-23T01:23:23.907Z,957.33
2016-05-23T01:24:23.926Z,957.26
2016-05-23T01:25:23.944Z,957.2
2016-05-23T01:26:23.946Z,957.16
2016-05-23T01:27:23.966Z,957.22
2016-05-23T01:28:23.968Z,957.2
2016-05-23T01:29:23.970Z,957.24
2016-05-23T01:30:23.989Z,957.26
2016-05-23T01:31:24.007Z,957.27
2016-05-23T01:32:24.010Z,957.33
2016-05-23T01:33:24.028Z,957.35
2016-05-23T01:34:24.031Z,957.39
2016-05-23T01:35:24.034Z,957.42
2016-05-23T01:36:24.052Z,957.4
2016-05-23T01:37:24.070Z,957.41
2016-05-23T01:38:24.072Z,957.41
2016-05-23T01:39:24.076Z,957.41
2016-05-23T01:40:24.094Z,957.34
2016-05-23T01:41:24.097Z,957.34
2016-05-23T01:42:24.115Z,957.32
2016-05-23T01:43:24.133Z,957.26
2016-05-23T01:44:24.152Z,957.28
2016-05-23T01:45:24.139Z,957.28
2016-05-23T01:46:24.157Z,957.23
2016-05-23T01:47:24.160Z,957.25
2016-05-23T01:48:24.178Z,957.23
2016-05-23T01:49:24.180Z,957.22
2016-05-23T01:50:24.199Z,957.21
2016-05-23T01:51:24.202Z,957.21
2016-05-23T01:52:24.220Z,957.23
2016-05-23T01:53:24.223Z,957.19
2016-05-23T01:54:24.241Z,957.16
2016-05-23T01:55:24.244Z,957.2
2016-05-23T01:56:24.262Z,957.25
2016-05-23T01:57:24.265Z,957.24
2016-05-23T01:58:24.268Z,957.2
2016-05-23T01:59:24.285Z,957.22
2016-05-23T02:00:24.288Z,957.15
2016-05-23T02:01:24.306Z,957.16
2016-05-23T02:02:24.310Z,957.21
2016-05-23T02:03:24.328Z,957.2
2016-05-23T02:04:24.330Z,957.21
2016-05-23T02:05:24.349Z,957.14
2016-05-23T02:06:24.351Z,957.13
2016-05-23T02:07:24.369Z,957.13
2016-05-23T02:08:24.373Z,957.12
2016-05-23T02:09:24.392Z,957.12
2016-05-23T02:10:24.394Z,957.14
2016-05-23T02:11:24.412Z,957.13
2016-05-23T02:12:24.414Z,957.09
2016-05-23T02:13:24.432Z,957.09
2016-05-23T02:14:24.436Z,957
2016-05-23T02:15:24.453Z,956.98
2016-05-23T02:16:24.456Z,957.02
2016-05-23T02:17:24.458Z,957.02
2016-05-23T02:18:24.477Z,957.06
2016-05-23T02:19:24.496Z,957.02
2016-05-23T02:20:24.499Z,957.02
2016-05-23T02:21:24.517Z,957.04
2016-05-23T02:22:24.519Z,957.04
2016-05-23T02:23:24.522Z,957.08
2016-05-23T02:24:24.541Z,957.09
2016-05-23T02:25:24.543Z,957.08
2016-05-23T02:26:24.562Z,957.08
2016-05-23T02:27:24.565Z,957.05
2016-05-23T02:28:24.582Z,957.07
2016-05-23T02:29:24.585Z,957.07
2016-05-23T02:30:24.588Z,957.08
2016-05-23T02:31:24.606Z,957.06
2016-05-23T02:32:24.625Z,957.02
2016-05-23T02:33:24.643Z,957.06
2016-05-23T02:34:24.646Z,957.03
2016-05-23T02:35:24.648Z,957.03
2016-05-23T02:36:24.666Z,957
2016-05-23T02:37:24.670Z,957
2016-05-23T02:38:24.687Z,956.96
2016-05-23T02:39:24.690Z,956.96
2016-05-23T02:40:24.692Z,956.95
2016-05-23T02:41:24.712Z,956.93
2016-05-23T02:42:24.714Z,956.91
2016-05-23T02:43:24.733Z,956.88
2016-05-23T02:44:24.735Z,956.91
2016-05-23T02:45:24.753Z,956.92
2016-05-23T02:46:24.756Z,956.95
2016-05-23T02:47:24.774Z,956.94
2016-05-23T02:48:24.777Z,956.99
2016-05-23T02:49:24.795Z,956.99
2016-05-23T02:50:24.798Z,956.96
2016-05-23T02:51:24.816Z,956.97
2016-05-23T02:52:24.819Z,956.95
2016-05-23T02:53:24.837Z,956.92
2016-05-23T02:54:24.840Z,956.91
2016-05-23T02:55:24.858Z,956.93
2016-05-23T02:56:24.861Z,956.91
2016-05-23T02:57:24.880Z,956.96
2016-05-23T02:58:24.882Z,956.95
2016-05-23T02:59:24.900Z,956.94
2016-05-23T03:00:24.903Z,956.95
2016-05-23T03:01:24.906Z,956.9
2016-05-23T03:02:24.924Z,956.89
2016-05-23T03:03:24.926Z,956.87
2016-05-23T03:04:24.945Z,956.86
2016-05-23T03:05:24.947Z,956.88
2016-05-23T03:06:24.950Z,956.87
2016-05-23T03:07:24.968Z,956.83
2016-05-23T03:08:24.971Z,956.8
2016-05-23T03:09:24.989Z,956.8
2016-05-23T03:10:24.992Z,956.76
2016-05-23T03:11:25.011Z,956.71
2016-05-23T03:12:25.029Z,956.69
2016-05-23T03:13:25.031Z,956.66
2016-05-23T03:14:25.034Z,956.67
2016-05-23T03:15:25.053Z,956.7
2016-05-23T03:16:25.056Z,956.68
2016-05-23T03:17:25.074Z,956.68
2016-05-23T03:18:25.076Z,956.66
2016-05-23T03:19:25.095Z,956.64
2016-05-23T03:20:25.097Z,956.62
2016-05-23T03:21:25.116Z,956.59
2016-05-23T03:22:25.134Z,956.56
2016-05-23T03:23:25.136Z,956.56
2016-05-23T03:24:25.139Z,956.55
2016-05-23T03:25:25.158Z,956.56
2016-05-23T03:26:25.161Z,956.54
2016-05-23T03:27:25.179Z,956.55
2016-05-23T03:28:25.181Z,956.55
2016-05-23T03:29:25.199Z,956.56
2016-05-23T03:30:25.202Z,956.55
2016-05-23T03:31:25.221Z,956.51
2016-05-23T03:32:25.223Z,956.57
2016-05-23T03:33:25.242Z,956.55
2016-05-23T03:34:25.244Z,956.52
2016-05-23T03:35:25.248Z,956.55
2016-05-23T03:36:25.265Z,956.55
2016-05-23T03:37:25.268Z,956.54
2016-05-23T03:38:25.286Z,956.51
2016-05-23T03:39:25.289Z,956.49
2016-05-23T03:40:25.307Z,956.49
2016-05-23T03:41:25.310Z,956.48
2016-05-23T03:42:25.328Z,956.46
2016-05-23T03:43:25.331Z,956.49
2016-05-23T03:44:25.350Z,956.51
2016-05-23T03:45:25.352Z,956.48
2016-05-23T03:46:25.370Z,956.49
2016-05-23T03:47:25.372Z,956.5
2016-05-23T03:48:25.392Z,956.46
2016-05-23T03:49:25.394Z,956.43
2016-05-23T03:50:25.413Z,956.44
2016-05-23T03:51:25.416Z,956.45
2016-05-23T03:52:25.433Z,956.45
2016-05-23T03:53:25.436Z,956.42
2016-05-23T03:54:25.439Z,956.43
2016-05-23T03:55:25.458Z,956.42
2016-05-23T03:56:25.460Z,956.46
2016-05-23T03:57:25.478Z,956.51
2016-05-23T03:58:25.480Z,956.51
2016-05-23T03:59:25.905Z,956.53
2016-05-23T04:00:25.518Z,956.51
2016-05-23T04:01:25.520Z,956.51
2016-05-23T04:02:25.523Z,956.56
2016-05-23T04:03:25.541Z,956.55
2016-05-23T04:04:25.544Z,956.53
2016-05-23T04:05:25.562Z,956.59
2016-05-23T04:06:25.565Z,956.57
2016-05-23T04:07:25.584Z,956.6
2016-05-23T04:08:25.602Z,956.62
2016-05-23T04:09:25.604Z,956.63
2016-05-23T04:10:25.607Z,956.62
2016-05-23T04:11:25.625Z,956.61
2016-05-23T04:12:25.628Z,956.61
2016-05-23T04:13:25.631Z,956.61
2016-05-23T04:14:25.649Z,956.62
2016-05-23T04:15:25.651Z,956.59
2016-05-23T04:16:25.670Z,956.59
2016-05-23T04:17:25.673Z,956.53
2016-05-23T04:18:25.691Z,956.5
2016-05-23T04:19:25.694Z,956.43
2016-05-23T04:20:25.712Z,956.43
2016-05-23T04:21:25.714Z,956.41
2016-05-23T04:22:25.717Z,956.42
2016-05-23T04:23:25.736Z,956.41
2016-05-23T04:24:25.754Z,956.45
2016-05-23T04:25:25.757Z,956.49
2016-05-23T04:26:25.775Z,956.49
2016-05-23T04:27:25.778Z,956.5
2016-05-23T04:28:25.796Z,956.52
2016-05-23T04:29:25.799Z,956.52
2016-05-23T04:30:25.801Z,956.5
2016-05-23T04:31:25.819Z,956.48
2016-05-23T04:32:25.821Z,956.44
2016-05-23T04:33:25.840Z,956.44
2016-05-23T04:34:25.843Z,956.45
2016-05-23T04:35:25.862Z,956.41
2016-05-23T04:36:25.865Z,956.45
2016-05-23T04:37:25.867Z,956.44
2016-05-23T04:38:25.885Z,956.49
2016-05-23T04:39:25.888Z,956.41
2016-05-23T04:40:25.906Z,956.44
2016-05-23T04:41:25.909Z,956.41
2016-05-23T04:42:25.928Z,956.38
2016-05-23T04:43:25.931Z,956.37
2016-05-23T04:44:25.948Z,956.37
2016-05-23T04:45:25.967Z,956.33
2016-05-23T04:46:25.970Z,956.33
2016-05-23T04:47:25.987Z,956.35
2016-05-23T04:48:25.990Z,956.37
2016-05-23T04:49:26.025Z,956.43
2016-05-23T04:50:26.012Z,956.4
2016-05-23T04:51:26.015Z,956.43
2016-05-23T04:52:26.032Z,956.4
2016-05-23T04:53:26.036Z,956.39
2016-05-23T04:54:26.053Z,956.34
2016-05-23T04:55:26.056Z,956.34
2016-05-23T04:56:26.059Z,956.3
2016-05-23T04:57:26.078Z,956.28
2016-05-23T04:58:26.096Z,956.24
2016-05-23T04:59:26.098Z,956.26
2016-05-23T05:00:26.117Z,956.28
2016-05-23T05:01:26.119Z,956.24
2016-05-23T05:02:26.122Z,956.26
2016-05-23T05:03:26.140Z,956.23
2016-05-23T05:04:26.143Z,956.22
2016-05-23T05:05:26.146Z,956.22
2016-05-23T05:06:26.164Z,956.16
2016-05-23T05:07:26.182Z,956.17
2016-05-23T05:08:26.185Z,956.12
2016-05-23T05:09:26.204Z,956.1
2016-05-23T05:10:26.206Z,956.14
2016-05-23T05:11:26.224Z,956.14
2016-05-23T05:12:26.227Z,956.17
2016-05-23T05:13:26.245Z,956.16
2016-05-23T05:14:26.245Z,956.18
2016-05-23T05:15:26.248Z,956.14
2016-05-23T05:16:26.266Z,956.13
2016-05-23T05:17:26.270Z,956.14
2016-05-23T05:18:26.287Z,956.15
2016-05-23T05:19:26.290Z,956.18
2016-05-23T05:20:26.308Z,956.18
2016-05-23T05:21:26.312Z,956.17
2016-05-23T05:22:26.329Z,956.16
2016-05-23T05:23:26.331Z,956.16
2016-05-23T05:24:26.351Z,956.08
2016-05-23T05:25:26.353Z,956.12
2016-05-23T05:26:26.371Z,956.14
2016-05-23T05:27:26.375Z,956.13
2016-05-23T05:28:26.392Z,956.14
2016-05-23T05:29:26.989Z,956.15
2016-05-23T05:30:26.414Z,956.11
2016-05-23T05:31:26.416Z,956.12
2016-05-23T05:32:26.435Z,956.11
2016-05-23T05:33:26.421Z,956.09
2016-05-23T05:34:26.455Z,956.08
2016-05-23T05:35:26.458Z,956.05
2016-05-23T05:36:26.461Z,956.06
2016-05-23T05:37:26.479Z,956.07
2016-05-23T05:38:26.497Z,956.05
2016-05-23T05:39:26.500Z,956.05
2016-05-23T05:40:26.503Z,956.04
2016-05-23T05:41:26.521Z,956.04
2016-05-23T05:42:26.524Z,956.04
2016-05-23T05:43:26.543Z,956.06
2016-05-23T05:44:26.545Z,956.1
2016-05-23T05:45:26.563Z,956.09
2016-05-23T05:46:26.565Z,956.09
2016-05-23T05:47:26.584Z,956.1
2016-05-23T05:48:26.587Z,956.1
2016-05-23T05:49:26.605Z,956.11
2016-05-23T05:50:26.608Z,956.09
2016-05-23T05:51:26.626Z,956.12
2016-05-23T05:52:26.629Z,956.13
2016-05-23T05:53:26.631Z,956.09
2016-05-23T05:54:26.650Z,956.1
2016-05-23T05:55:26.668Z,956.08
2016-05-23T05:56:26.670Z,956.04
2016-05-23T05:57:26.673Z,956.07
2016-05-23T05:58:26.692Z,956.11
2016-05-23T05:59:27.133Z,956.12
2016-05-23T06:00:26.713Z,956.16
2016-05-23T06:01:26.716Z,956.19
2016-05-23T06:02:26.734Z,956.21
2016-05-23T06:03:26.737Z,956.21
2016-05-23T06:04:26.739Z,956.22
2016-05-23T06:05:26.758Z,956.23
2016-05-23T06:06:26.777Z,956.24
2016-05-23T06:07:26.779Z,956.2
2016-05-23T06:08:26.796Z,956.25
2016-05-23T06:09:26.799Z,956.23
2016-05-23T06:10:26.818Z,956.26
2016-05-23T06:11:26.821Z,956.23
2016-05-23T06:12:26.838Z,956.25
2016-05-23T06:13:26.841Z,956.28
2016-05-23T06:14:26.843Z,956.23
2016-05-23T06:15:26.863Z,956.27
2016-05-23T06:16:26.881Z,956.27
2016-05-23T06:17:26.884Z,956.24
2016-05-23T06:18:26.887Z,956.27
2016-05-23T06:19:26.905Z,956.23
2016-05-23T06:21:10.192Z,956.2
2016-05-23T06:22:10.195Z,956.19
2016-05-23T06:23:10.181Z,956.22
2016-05-23T06:24:10.199Z,956.18
2016-05-23T06:25:10.202Z,956.22
2016-05-23T06:26:10.205Z,956.17
2016-05-23T06:27:10.223Z,956.21
2016-05-23T06:28:10.225Z,956.19
2016-05-23T06:29:10.244Z,956.24
2016-05-23T06:30:10.637Z,956.23
2016-05-23T06:31:10.250Z,956.2
2016-05-23T06:32:10.267Z,956.16
2016-05-23T06:33:10.270Z,956.14
2016-05-23T06:34:10.289Z,956.17
2016-05-23T06:35:10.292Z,956.11
2016-05-23T06:36:11.013Z,956.11
2016-05-23T06:37:10.297Z,956.1
2016-05-23T06:38:10.316Z,956.1
2016-05-23T06:39:10.319Z,956.07
2016-05-23T06:40:10.320Z,956.08
2016-05-23T06:41:11.152Z,956.12
2016-05-23T06:42:10.341Z,956.15
2016-05-23T06:43:10.360Z,956.14
2016-05-23T06:44:10.362Z,956.12
2016-05-23T06:45:10.646Z,956.15
2016-05-23T06:46:10.384Z,956.18
2016-05-23T06:47:10.402Z,956.13
2016-05-23T06:48:10.405Z,956.18
2016-05-23T06:49:10.433Z,956.2
2016-05-23T06:50:10.477Z,956.18
2016-05-23T06:51:10.505Z,956.18
2016-05-23T06:52:10.548Z,956.15
2016-05-23T06:53:10.576Z,956.13
2016-05-23T06:54:10.587Z,956.12
2016-05-23T06:55:10.615Z,956.14
2016-05-23T06:56:10.627Z,956.09
2016-05-23T06:57:10.640Z,956.16
2016-05-23T06:58:10.667Z,956.15
2016-05-23T06:59:10.673Z,956.09
2016-05-23T07:00:10.725Z,956.09
2016-05-23T07:01:10.700Z,956.08
2016-05-23T07:02:10.705Z,956.02
2016-05-23T07:03:10.727Z,956.07
2016-05-23T07:04:10.731Z,956.06
2016-05-23T07:05:10.735Z,956.05
2016-05-23T07:06:10.754Z,956.06
2016-05-23T07:07:10.758Z,956.05
2016-05-23T07:08:10.777Z,956
2016-05-23T07:09:10.780Z,956
2016-05-23T07:10:10.783Z,956.01
2016-05-23T07:11:10.803Z,956.06
2016-05-23T07:12:10.805Z,956.04
2016-05-23T07:13:10.808Z,956.06
2016-05-23T07:14:10.812Z,956.06
2016-05-23T07:15:10.909Z,956.05
2016-05-23T07:16:10.848Z,956.05
2016-05-23T07:17:10.852Z,955.97
2016-05-23T07:18:10.855Z,956.01
2016-05-23T07:19:10.888Z,955.98
2016-05-23T07:20:10.876Z,956.02
2016-05-23T07:21:10.879Z,955.95
2016-05-23T07:22:10.882Z,955.95
2016-05-23T07:23:10.900Z,955.9
2016-05-23T07:24:10.902Z,955.89
2016-05-23T07:25:10.905Z,955.9
2016-05-23T07:26:10.907Z,955.93
2016-05-23T07:27:10.926Z,955.94
2016-05-23T07:28:10.944Z,956
2016-05-23T07:29:10.947Z,956.02
2016-05-23T07:30:11.106Z,955.99
2016-05-23T07:31:10.953Z,956
2016-05-23T07:32:10.970Z,956.02
2016-05-23T07:33:10.989Z,956.02
2016-05-23T07:34:10.991Z,955.96
2016-05-23T07:35:10.995Z,955.98
2016-05-23T07:36:12.153Z,955.91
2016-05-23T07:37:11.000Z,955.89
2016-05-23T07:38:11.003Z,955.88
2016-05-23T07:39:11.021Z,955.86
2016-05-23T07:40:11.023Z,955.83
2016-05-23T07:41:11.042Z,955.82
2016-05-23T07:42:11.044Z,955.82
2016-05-23T07:43:26.172Z,955.82
2016-05-23T07:44:26.377Z,955.82
2016-05-23T07:45:26.194Z,955.84
2016-05-23T07:46:26.196Z,955.86
2016-05-23T07:47:26.198Z,955.83
2016-05-23T07:48:26.216Z,955.88
2016-05-23T07:49:26.219Z,955.88
2016-05-23T07:50:26.237Z,955.87
2016-05-23T07:51:26.241Z,955.9
2016-05-23T07:52:26.259Z,955.9
2016-05-23T07:53:26.262Z,955.89
2016-05-23T07:54:26.264Z,955.84
2016-05-23T07:55:26.282Z,955.88
2016-05-23T07:56:26.285Z,955.8
2016-05-23T07:57:26.304Z,955.83
2016-05-23T07:58:26.306Z,955.85
2016-05-23T07:59:26.371Z,955.84
2016-05-23T08:00:26.326Z,955.83
2016-05-23T08:01:26.330Z,955.8
2016-05-23T08:02:26.348Z,955.81
2016-05-23T08:03:26.351Z,955.78
2016-05-23T08:04:26.369Z,955.74
2016-05-23T08:05:26.372Z,955.76
2016-05-23T08:06:26.375Z,955.78
2016-05-23T08:07:26.393Z,955.76
2016-05-23T08:08:26.411Z,955.8
2016-05-23T08:09:26.414Z,955.79
2016-05-23T08:10:26.417Z,955.82
2016-05-23T08:11:26.436Z,955.85
2016-05-23T08:12:26.453Z,955.87
2016-05-23T08:13:26.456Z,955.92
2016-05-23T08:14:26.912Z,955.92
2016-05-23T08:15:26.477Z,955.89
2016-05-23T08:16:26.494Z,955.9
2016-05-23T08:17:26.497Z,955.9
2016-05-23T08:18:26.516Z,955.93
2016-05-23T08:19:26.519Z,955.93
2016-05-23T08:20:26.522Z,955.95
2016-05-23T08:21:26.540Z,956.02
2016-05-23T08:22:26.543Z,956
2016-05-23T08:23:26.560Z,956.03
2016-05-23T08:24:26.563Z,956.02
2016-05-23T08:25:26.581Z,956.08
2016-05-23T08:26:26.585Z,956.11
2016-05-23T08:27:26.603Z,956.12
2016-05-23T08:28:26.606Z,956.14
2016-05-23T08:29:26.639Z,956.07
2016-05-23T08:30:26.626Z,956.1
2016-05-23T08:31:26.645Z,956.11
2016-05-23T08:32:26.648Z,956.12
2016-05-23T08:33:26.665Z,956.16
2016-05-23T08:34:26.668Z,956.15
2016-05-23T08:35:26.734Z,956.1
2016-05-23T08:36:26.690Z,956.14
2016-05-23T08:37:26.708Z,956.17
2016-05-23T08:38:26.711Z,956.21
2016-05-23T08:39:26.714Z,956.19
2016-05-23T08:40:26.731Z,956.17
2016-05-23T08:41:26.734Z,956.19
2016-05-23T08:42:26.752Z,956.21
2016-05-23T08:43:26.755Z,956.21
2016-05-23T08:44:26.774Z,956.25
2016-05-23T08:45:26.777Z,956.22
2016-05-23T08:46:26.795Z,956.23
2016-05-23T08:47:26.813Z,956.28
2016-05-23T08:48:26.816Z,956.24
2016-05-23T08:49:26.819Z,956.26
2016-05-23T08:50:26.836Z,956.2
2016-05-23T08:51:26.838Z,956.22
2016-05-23T08:52:26.857Z,956.2
2016-05-23T08:53:26.876Z,956.21
2016-05-23T08:54:26.879Z,956.24
2016-05-23T08:55:26.882Z,956.2
2016-05-23T08:56:26.900Z,956.2
2016-05-23T08:57:26.902Z,956.19
2016-05-23T08:58:26.921Z,956.17
2016-05-23T08:59:27.032Z,956.2
2016-05-23T09:00:26.942Z,956.18
2016-05-23T09:01:26.945Z,956.22
2016-05-23T09:02:26.962Z,956.21
2016-05-23T09:03:26.965Z,956.21
2016-05-23T09:04:26.984Z,956.23
2016-05-23T09:05:27.018Z,956.27
2016-05-23T09:06:27.004Z,956.26
2016-05-23T09:07:27.007Z,956.27
2016-05-23T09:08:27.026Z,956.28
2016-05-23T09:09:27.028Z,956.29
2016-05-23T09:10:27.047Z,956.27
2016-05-23T09:11:27.049Z,956.26
2016-05-23T09:12:27.067Z,956.26
2016-05-23T09:13:27.070Z,956.27
2016-05-23T09:14:27.089Z,956.35
2016-05-23T09:15:27.092Z,956.34
2016-05-23T09:16:27.110Z,956.36
2016-05-23T09:17:27.113Z,956.38
2016-05-23T09:18:27.131Z,956.43
2016-05-23T09:19:27.134Z,956.41
2016-05-23T09:20:27.136Z,956.44
2016-05-23T09:21:27.155Z,956.37
2016-05-23T09:22:27.172Z,956.4
2016-05-23T09:23:27.175Z,956.4
2016-05-23T09:24:27.177Z,956.4
2016-05-23T09:25:27.196Z,956.45
2016-05-23T09:26:27.215Z,956.46
2016-05-23T09:27:27.218Z,956.46
2016-05-23T09:28:27.220Z,956.5
2016-05-23T09:29:27.238Z,956.48
2016-05-23T09:30:27.241Z,956.5
2016-05-23T09:31:27.259Z,956.46
2016-05-23T09:32:27.278Z,956.49
2016-05-23T09:33:27.281Z,956.52
2016-05-23T09:34:27.298Z,956.54
2016-05-23T09:35:27.301Z,956.58
2016-05-23T09:36:27.320Z,956.67
2016-05-23T09:37:27.322Z,956.78
2016-05-23T09:38:27.340Z,956.78
2016-05-23T09:39:27.343Z,956.73
2016-05-23T09:40:27.361Z,956.81
2016-05-23T09:41:27.364Z,956.81
2016-05-23T09:42:27.367Z,956.84
2016-05-23T09:43:27.386Z,956.91
2016-05-23T09:44:27.764Z,956.93
2016-05-23T09:45:27.406Z,956.85
2016-05-23T09:46:27.425Z,956.95
2016-05-23T09:47:27.568Z,956.95
2016-05-23T09:48:27.447Z,957.05
2016-05-23T09:49:27.449Z,956.97
2016-05-23T09:50:27.451Z,957.06
2016-05-23T09:51:27.469Z,957.01
2016-05-23T09:52:28.972Z,956.96
2016-05-23T09:53:27.491Z,957.01
2016-05-23T09:54:27.493Z,957.02
2016-05-23T09:55:27.511Z,957.01
2016-05-23T09:56:27.514Z,957.07
2016-05-23T09:57:28.407Z,957.14
2016-05-23T09:58:27.551Z,957.12
2016-05-23T09:59:27.710Z,957.13
2016-05-23T10:00:27.557Z,957.09
2016-05-23T10:01:27.574Z,957.19
2016-05-23T10:02:27.765Z,957.18
2016-05-23T10:03:27.596Z,957.18
2016-05-23T10:04:27.615Z,957.18
2016-05-23T10:05:27.617Z,957.27
2016-05-23T10:06:27.620Z,957.24
2016-05-23T10:07:27.637Z,957.19
2016-05-23T10:08:27.640Z,957.26
2016-05-23T10:09:27.658Z,957.29
2016-05-23T10:10:27.661Z,957.3
2016-05-23T10:11:27.679Z,957.31
2016-05-23T10:12:27.682Z,957.36
2016-05-23T10:13:27.700Z,957.37
2016-05-23T10:14:27.703Z,957.34
2016-05-23T10:15:27.722Z,957.4
2016-05-23T10:16:27.725Z,957.4
2016-05-23T10:17:27.742Z,957.45
2016-05-23T10:18:27.760Z,957.41
2016-05-23T10:19:27.764Z,957.45
2016-05-23T10:20:27.782Z,957.47
2016-05-23T10:21:27.785Z,957.5
2016-05-23T10:22:27.787Z,957.47
2016-05-23T10:23:27.805Z,957.46
2016-05-23T10:24:27.808Z,957.48
2016-05-23T10:25:27.827Z,957.46
2016-05-23T10:26:27.829Z,957.52
2016-05-23T10:27:27.847Z,957.49
2016-05-23T10:28:27.850Z,957.57
2016-05-23T10:29:28.416Z,957.49
2016-05-23T10:30:27.871Z,957.59
2016-05-23T10:31:27.890Z,957.59
2016-05-23T10:32:27.893Z,957.65
2016-05-23T10:33:27.911Z,957.63
2016-05-23T10:34:27.912Z,957.56
2016-05-23T10:35:27.931Z,957.64
2016-05-23T10:36:27.934Z,957.75
2016-05-23T10:37:27.953Z,957.65
2016-05-23T10:38:27.955Z,957.65
2016-05-23T10:39:27.973Z,957.69
2016-05-23T10:40:27.976Z,957.62
2016-05-23T10:41:27.995Z,957.64
2016-05-23T10:42:27.997Z,957.7
2016-05-23T10:43:28.015Z,957.65
2016-05-23T10:44:28.017Z,957.62
2016-05-23T10:45:28.036Z,957.61
2016-05-23T10:46:28.039Z,957.62
2016-05-23T10:47:28.042Z,957.74
2016-05-23T10:48:28.060Z,957.66
2016-05-23T10:49:28.078Z,957.66
2016-05-23T10:50:28.081Z,957.66
2016-05-23T10:51:28.100Z,957.69
2016-05-23T10:52:28.102Z,957.67
2016-05-23T10:53:28.121Z,957.72
2016-05-23T10:54:28.124Z,957.71
2016-05-23T10:55:28.142Z,957.69
2016-05-23T10:56:28.144Z,957.7
2016-05-23T10:57:28.162Z,957.69
2016-05-23T10:58:28.165Z,957.71
2016-05-23T10:59:28.168Z,957.62
2016-05-23T11:00:28.186Z,957.73
2016-05-23T11:01:28.204Z,957.7
2016-05-23T11:02:28.223Z,957.68
2016-05-23T11:03:28.226Z,957.65
2016-05-23T11:04:28.229Z,957.68
2016-05-23T11:05:28.246Z,957.67
2016-05-23T11:06:28.249Z,957.64
2016-05-23T11:07:28.268Z,957.65
2016-05-23T11:08:28.271Z,957.62
2016-05-23T11:09:28.289Z,957.68
2016-05-23T11:10:28.292Z,957.68
2016-05-23T11:11:28.309Z,957.67
2016-05-23T11:12:28.312Z,957.66
2016-05-23T11:13:28.331Z,957.69
2016-05-23T11:14:28.333Z,957.66
2016-05-23T11:15:28.351Z,957.63
2016-05-23T11:16:28.354Z,957.64
2016-05-23T11:17:28.373Z,957.64
2016-05-23T11:18:28.376Z,957.61
2016-05-23T11:19:28.394Z,957.56
2016-05-23T11:20:28.397Z,957.56
2016-05-23T11:21:28.414Z,957.56
2016-05-23T11:22:28.417Z,957.57
2016-05-23T11:23:28.436Z,957.56
2016-05-23T11:24:28.438Z,957.57
2016-05-23T11:25:28.457Z,957.59
2016-05-23T11:26:28.460Z,957.57
2016-05-23T11:27:28.463Z,957.53
2016-05-23T11:28:28.496Z,957.54
2016-05-23T11:29:28.514Z,957.5
2016-05-23T11:30:28.502Z,957.45
2016-05-23T11:31:28.519Z,957.5
2016-05-23T11:32:28.522Z,957.49
2016-05-23T11:33:28.541Z,957.48
2016-05-23T11:34:28.544Z,957.42
2016-05-23T11:35:28.562Z,957.44
2016-05-23T11:36:28.565Z,957.57
2016-05-23T11:37:28.568Z,957.51
2016-05-23T11:38:28.585Z,957.51
2016-05-23T11:39:28.588Z,957.53
2016-05-23T11:40:28.606Z,957.52
2016-05-23T11:41:28.625Z,957.48
2016-05-23T11:42:28.628Z,957.58
2016-05-23T11:43:28.645Z,957.62
2016-05-23T11:44:28.648Z,957.6
2016-05-23T11:45:28.667Z,957.59
2016-05-23T11:46:28.669Z,957.65
2016-05-23T11:47:28.687Z,957.62
2016-05-23T11:48:28.690Z,957.61
2016-05-23T11:49:28.708Z,957.7
2016-05-23T11:50:28.711Z,957.7
2016-05-23T11:51:28.730Z,957.68
2016-05-23T11:52:28.733Z,957.69
2016-05-23T11:53:28.751Z,957.76
2016-05-23T11:54:28.753Z,957.75
2016-05-23T11:55:28.772Z,957.78
2016-05-23T11:56:28.774Z,957.85
2016-05-23T11:57:28.793Z,957.85
2016-05-23T11:58:28.796Z,957.89
2016-05-23T11:59:29.252Z,957.89
2016-05-23T12:00:28.817Z,957.96
2016-05-23T12:01:28.818Z,957.97
2016-05-23T12:02:28.837Z,957.95
2016-05-23T12:03:28.840Z,957.95
2016-05-23T12:04:28.874Z,957.93
2016-05-23T12:05:28.861Z,957.91
2016-05-23T12:06:28.880Z,957.93
2016-05-23T12:07:28.882Z,957.87
2016-05-23T12:08:28.901Z,957.88
2016-05-23T12:09:28.919Z,957.95
2016-05-23T12:10:28.922Z,957.96
2016-05-23T12:11:28.940Z,957.99
2016-05-23T12:12:28.942Z,958.01
2016-05-23T12:13:28.945Z,958.06
2016-05-23T12:14:28.964Z,958.1
2016-05-23T12:15:28.982Z,958.14
2016-05-23T12:16:28.984Z,958.21
2016-05-23T12:17:28.987Z,958.19
2016-05-23T12:18:29.005Z,958.23
2016-05-23T12:19:29.008Z,958.27
2016-05-23T12:20:29.026Z,958.29
2016-05-23T12:21:29.029Z,958.32
2016-05-23T12:22:29.048Z,958.36
2016-05-23T12:23:29.050Z,958.32
2016-05-23T12:24:29.053Z,958.35
2016-05-23T12:25:29.071Z,958.34
2016-05-23T12:26:29.074Z,958.34
2016-05-23T12:27:29.092Z,958.27
2016-05-23T12:28:29.095Z,958.25
2016-05-23T12:29:29.113Z,958.31
2016-05-23T12:30:29.132Z,958.24
2016-05-23T12:31:29.135Z,958.28
2016-05-23T12:32:29.152Z,958.24